TimeCST,TemperatureF,Dew PointF,Humidity,Sea Level PressureIn,VisibilityMPH,Wind Direction,Wind SpeedMPH,Gust SpeedMPH,PrecipitationIn,Events,Conditions,WindDirDegrees,DateUTC
12:15 AM,22.3,21.7,98,30.07,3.0,Calm,Calm,-,N/A,,Overcast,0,2013-02-25 06:15:00
12:35 AM,21.9,21.0,96,30.07,3.0,Calm,Calm,-,N/A,,Overcast,0,2013-02-25 06:35:00
12:55 AM,21.2,20.3,96,30.06,3.0,Calm,Calm,-,N/A,,Overcast,0,2013-02-25 06:55:00
1:15 AM,20.3,19.4,96,30.05,2.5,Calm,Calm,-,N/A,,Mist,0,2013-02-25 07:15:00
1:35 AM,16.7,15.3,94,30.05,2.0,Calm,Calm,-,N/A,,Scattered Clouds,0,2013-02-25 07:35:00
1:55 AM,17.6,16.3,95,30.07,1.2,Calm,Calm,-,N/A,,Mist,0,2013-02-25 07:55:00
2:15 AM,15.1,13.5,93,30.08,1.5,South,3.5,-,N/A,,Mostly Cloudy,180,2013-02-25 08:15:00
2:35 AM,17.4,16.3,96,30.07,2.0,Calm,Calm,-,N/A,,Overcast,0,2013-02-25 08:35:00
2:55 AM,18.3,17.2,96,30.08,3.0,Calm,Calm,-,N/A,,Overcast,0,2013-02-25 08:55:00
3:15 AM,18.5,17.6,96,30.08,3.0,Calm,Calm,-,N/A,,Overcast,0,2013-02-25 09:15:00
3:35 AM,19.2,18.1,96,30.06,3.0,Calm,Calm,-,N/A,,Overcast,0,2013-02-25 09:35:00
3:55 AM,19.4,18.5,96,30.05,4.0,Calm,Calm,-,N/A,,Mostly Cloudy,0,2013-02-25 09:55:00
4:15 AM,18.9,18.0,96,30.05,3.0,Calm,Calm,-,N/A,,Scattered Clouds,0,2013-02-25 10:15:00
4:35 AM,17.8,16.5,95,30.05,2.5,Calm,Calm,-,N/A,,Clear,0,2013-02-25 10:35:00
4:55 AM,16.2,14.7,94,30.06,2.0,Calm,Calm,-,N/A,,Clear,0,2013-02-25 10:55:00
5:15 AM,13.8,12.6,95,30.07,2.0,Calm,Calm,-,N/A,,Mostly Cloudy,0,2013-02-25 11:15:00
5:35 AM,13.5,11.7,93,30.06,2.5,Calm,Calm,-,N/A,,Mostly Cloudy,0,2013-02-25 11:35:00
6:15 AM,10.9,8.6,90,30.08,3.0,Calm,Calm,-,N/A,,Clear,0,2013-02-25 12:15:00
6:35 AM,12.6,10.8,92,30.08,2.0,Calm,Calm,-,N/A,,Clear,0,2013-02-25 12:35:00
6:55 AM,8.4,5.4,87,30.08,1.5,Calm,Calm,-,N/A,,Mist,0,2013-02-25 12:55:00
7:15 AM,7.7,5.4,90,30.08,1.5,Calm,Calm,-,N/A,,Mist,0,2013-02-25 13:15:00
7:35 AM,7.0,4.3,89,30.08,1.0,Calm,Calm,-,N/A,,Mist,0,2013-02-25 13:35:00
7:55 AM,5.9,3.4,89,30.08,1.2,Calm,Calm,-,N/A,,Mist,0,2013-02-25 13:55:00
8:15 AM,7.7,5.4,90,30.08,0.2,Calm,Calm,-,N/A,Fog,Light Freezing Fog,0,2013-02-25 14:15:00
8:35 AM,9.7,7.5,91,30.09,1.2,Calm,Calm,-,N/A,,Scattered Clouds,0,2013-02-25 14:35:00
8:55 AM,12.4,10.6,92,30.09,2.0,Calm,Calm,-,N/A,,Overcast,0,2013-02-25 14:55:00
9:15 AM,15.1,13.5,93,30.09,2.5,Calm,Calm,-,N/A,,Overcast,0,2013-02-25 15:15:00
9:35 AM,17.2,15.8,94,30.08,2.5,Calm,Calm,-,N/A,,Overcast,0,2013-02-25 15:35:00
9:55 AM,21.4,20.5,96,30.08,3.0,Calm,Calm,-,N/A,,Overcast,0,2013-02-25 15:55:00
10:15 AM,23.9,23.2,97,30.08,4.0,Calm,Calm,-,N/A,,Overcast,0,2013-02-25 16:15:00
10:35 AM,25.7,25.0,97,30.08,4.0,Calm,Calm,-,N/A,,Overcast,0,2013-02-25 16:35:00
10:55 AM,28.9,28.4,98,30.08,5.0,NNW,5.8,-,N/A,,Scattered Clouds,340,2013-02-25 16:55:00
11:15 AM,29.3,28.8,98,30.08,7.0,North,5.8,-,N/A,,Clear,350,2013-02-25 17:15:00
11:35 AM,29.5,29.1,99,30.08,7.0,NNW,5.8,-,N/A,,Clear,340,2013-02-25 17:35:00
11:55 AM,30.2,28.4,93,30.07,7.0,North,6.9,-,N/A,,Clear,350,2013-02-25 17:55:00
12:15 PM,32.0,26.2,79,30.05,7.0,North,9.2,-,N/A,,Clear,350,2013-02-25 18:15:00
12:35 PM,32.0,24.3,73,30.04,10.0,North,10.4,-,N/A,,Clear,350,2013-02-25 18:35:00
12:55 PM,32.0,24.8,75,30.04,10.0,North,9.2,-,N/A,,Clear,350,2013-02-25 18:55:00
1:15 PM,32.0,25.0,75,30.03,10.0,North,9.2,-,N/A,,Clear,360,2013-02-25 19:15:00
1:35 PM,32.0,25.0,75,30.02,10.0,North,10.4,-,N/A,,Clear,360,2013-02-25 19:35:00
1:55 PM,32.0,24.8,75,30.01,10.0,North,9.2,-,N/A,,Clear,360,2013-02-25 19:55:00
2:15 PM,32.0,25.5,77,30.01,10.0,NNW,10.4,-,N/A,,Clear,340,2013-02-25 20:15:00
2:35 PM,32.0,25.0,75,30.02,10.0,North,6.9,-,N/A,,Clear,10,2013-02-25 20:35:00
2:55 PM,32.0,25.0,75,30.02,10.0,North,5.8,-,N/A,,Scattered Clouds,10,2013-02-25 20:55:00
3:15 PM,32.0,25.0,75,30.01,10.0,North,8.1,-,N/A,,Mostly Cloudy,360,2013-02-25 21:15:00
3:35 PM,32.0,24.8,75,30.01,10.0,North,5.8,-,N/A,,Scattered Clouds,360,2013-02-25 21:35:00
3:55 PM,32.0,24.8,75,30.00,10.0,North,8.1,-,N/A,,Clear,10,2013-02-25 21:55:00
4:15 PM,32.0,25.0,75,30.00,10.0,North,6.9,-,N/A,,Clear,10,2013-02-25 22:15:00
4:35 PM,31.5,25.0,77,30.00,10.0,North,8.1,-,N/A,,Clear,10,2013-02-25 22:35:00
4:55 PM,30.9,24.8,78,30.00,10.0,NNE,5.8,-,N/A,,Clear,20,2013-02-25 22:55:00
5:15 PM,30.0,24.3,79,29.99,10.0,NNE,6.9,-,N/A,,Clear,20,2013-02-25 23:15:00
5:35 PM,29.3,23.7,80,29.99,10.0,North,5.8,-,N/A,,Clear,10,2013-02-25 23:35:00
5:55 PM,28.9,23.4,80,29.98,10.0,NNE,5.8,-,N/A,,Clear,20,2013-02-25 23:55:00
6:15 PM,24.6,20.8,86,30.00,10.0,ENE,3.5,-,N/A,,Clear,60,2013-02-26 00:15:00
6:35 PM,23.9,20.7,87,29.99,10.0,NNE,3.5,-,N/A,,Clear,30,2013-02-26 00:35:00
6:55 PM,22.8,20.1,89,30.00,10.0,NE,4.6,-,N/A,,Scattered Clouds,40,2013-02-26 00:55:00
7:15 PM,25.2,22.6,90,30.00,7.0,NNE,4.6,-,N/A,,Overcast,20,2013-02-26 01:15:00
7:35 PM,27.1,24.8,91,29.99,7.0,NNE,5.8,-,N/A,,Overcast,30,2013-02-26 01:35:00
7:55 PM,28.2,25.2,88,29.98,5.0,NE,8.1,-,N/A,,Overcast,50,2013-02-26 01:55:00
8:15 PM,28.0,25.3,90,29.97,5.0,NE,6.9,-,N/A,,Overcast,50,2013-02-26 02:15:00
8:35 PM,27.5,24.8,90,29.96,5.0,NNE,6.9,-,N/A,,Overcast,30,2013-02-26 02:35:00
8:55 PM,27.3,24.8,90,29.96,5.0,NE,10.4,-,N/A,,Overcast,40,2013-02-26 02:55:00
9:15 PM,27.0,25.2,93,29.95,5.0,NNE,9.2,-,N/A,,Overcast,20,2013-02-26 03:15:00
9:35 PM,26.6,24.8,93,29.94,4.0,NE,9.2,-,N/A,,Overcast,40,2013-02-26 03:35:00
9:55 PM,26.2,24.8,94,29.95,4.0,NE,9.2,-,N/A,,Overcast,50,2013-02-26 03:55:00
10:15 PM,26.1,25.2,96,29.95,3.0,NE,10.4,-,N/A,,Overcast,40,2013-02-26 04:15:00
10:35 PM,25.7,25.2,98,29.94,3.0,NE,8.1,-,N/A,,Overcast,40,2013-02-26 04:35:00
10:55 PM,26.1,25.3,97,29.95,3.0,NNE,10.4,-,N/A,,Overcast,30,2013-02-26 04:55:00
11:15 PM,25.5,25.0,98,29.95,3.0,NNE,9.2,-,N/A,,Overcast,30,2013-02-26 05:15:00
11:35 PM,25.7,25.2,98,29.95,3.0,NE,6.9,-,N/A,,Overcast,40,2013-02-26 05:35:00
11:55 PM,26.1,25.3,97,29.95,4.0,ENE,6.9,-,N/A,,Overcast,60,2013-02-26 05:55:00